METAR Data
IDs: Format: Raw Decoded Include TAF

Data at: 0114 UTC 06 Dec 2019

KPVC 060056Z AUTO 28020G25KT 10SM OVC070 03/M06 A2981 RMK AO2 SLP095 T00331056 PNO $
KPVC 052356Z AUTO 28022G27KT 10SM OVC070 04/M06 A2979 RMK AO2 PK WND 29031/2305 SLP088 6//// T00441056 10067 20044 51039 PNO $
KPVC 052256Z AUTO 29021G27KT 10SM OVC060 04/M03 A2976 RMK AO2 PK WND 29028/2237 SLP078 T00441028 PNO $
KPVC 052156Z AUTO 29017G25KT 10SM OVC060 06/M02 A2972 RMK AO2 SLP064 T00561022 PNO $
KPVC 052056Z AUTO 30016G22KT 10SM FEW041 OVC055 06/M02 A2968 RMK AO2 SLP049 6//// T00561022 53027 PNO $
KPVC 051956Z AUTO 29014G22KT 10SM FEW037 OVC060 06/M02 A2965 RMK AO2 SLP039 T00611022 PNO $
KPVC 051856Z AUTO 29017G22KT 10SM FEW036 BKN060 06/M01 A2963 RMK AO2 SLP031 T00611011 PNO $
KPVC 051756Z AUTO 30017G22KT 10SM CLR 06/M01 A2960 RMK AO2 SLP022 6//// T00611006 10067 20033 53002 PNO $
KPVC 051656Z AUTO 30015G21KT 10SM CLR 06/M01 A2959 RMK AO2 SLP020 T00611006 PNO $
KPVC 051556Z AUTO 28016KT 10SM CLR 06/00 A2959 RMK AO2 SLP020 T00560000 PNO $
KPVC 051456Z AUTO 29011G18KT 10SM CLR 04/00 A2959 RMK AO2 SLP020 6//// T00440000 51017 PNO $
KPVC 051356Z AUTO 29012KT 10SM CLR 04/00 A2958 RMK AO2 SLP016 T00390000 PNO $
KPVC 051256Z AUTO 28013KT 10SM CLR 03/00 A2957 RMK AO2 SLP011 T00330000 PNO $
KPVC 051156Z AUTO 29015KT 10SM CLR 04/00 A2954 RMK AO2 SLP003 6//// 7//// T00390000 10039 20028 53018 PNO $
KPVC 051056Z AUTO 28009KT 10SM CLR 03/01 A2952 RMK AO2 SLP996 T00330006 PNO $
KPVC 050956Z AUTO 28010KT 10SM CLR 03/01 A2950 RMK AO2 SLP990 T00330006 PNO $
KPVC 050856Z AUTO 29009KT 10SM CLR 03/01 A2949 RMK AO2 SLP984 6//// T00280006 51005 PNO $
KPVC 050756Z AUTO 29009KT 10SM SCT050 03/00 A2949 RMK AO2 SLP984 T00280000 PNO $
KPVC 050656Z AUTO 29008KT 10SM CLR 03/00 A2948 RMK AO2 SLP981 T00280000 PNO $
KPVC 050556Z AUTO 28006KT 10SM FEW060 03/M01 A2947 RMK AO2 SLP979 6//// T00281006 10039 20028 58002 PNO $
KPVC 050456Z AUTO 27005KT 10SM OVC050 03/M01 A2948 RMK AO2 SLP980 T00331006 400390006 PNO $
KPVC 050356Z AUTO 27005KT 10SM OVC048 03/M01 A2948 RMK AO2 SLP982 T00331011 PNO $
KPVC 050256Z AUTO 27007KT 10SM OVC048 04/M01 A2948 RMK AO2 SLP981 6//// T00391006 56004 PNO $
KPVC 050156Z AUTO 26008KT 10SM OVC048 04/M01 A2948 RMK AO2 SLP982 T00391011 PNO $
KPVC 050056Z AUTO 25007KT 10SM OVC048 04/M01 A2949 RMK AO2 SLP984 T00391006 PNO $
KPVC 042356Z AUTO 26006KT 10SM OVC050 04/M01 A2949 RMK AO2 SLP985 6//// T00391011 10039 20028 51004 PNO $
KPVC 042256Z AUTO 25007KT 10SM OVC050 03/M01 A2949 RMK AO2 SLP985 T00331006 PNO $
KPVC 042156Z AUTO 25006KT 10SM OVC055 03/00 A2948 RMK AO2 SLP983 T00330000 PNO $
KPVC 042056Z AUTO 24006KT 10SM OVC055 03/M01 A2948 RMK AO2 SLP981 6//// T00331006 56005 PNO $
KPVC 041956Z AUTO 26009KT 10SM OVC075 03/M01 A2948 RMK AO2 SLP982 T00281006 PNO $
KPVC 041856Z AUTO 26010KT 10SM OVC075 03/M01 A2949 RMK AO2 SLP984 T00281006 PNO $
KPVC 041756Z AUTO 25008KT 10SM OVC075 03/M01 A2949 RMK AO2 SLP986 6//// T00331011 10033 20006 56017 PNO $
KPVC 041656Z AUTO 26008KT 10SM BKN085 03/M02 A2950 RMK AO2 SLP989 T00281022 PNO $
KPVC 041556Z AUTO 26011KT 10SM FEW090 02/M04 A2953 RMK AO2 SLP997 T00221039 FZRANO PNO $
KPVC 041456Z AUTO 24009KT 10SM CLR 02/M04 A2954 RMK AO2 SLP003 6//// T00221039 53002 FZRANO PNO $
KPVC 041356Z AUTO 23009KT 10SM CLR 02/M04 A2954 RMK AO2 SLP002 T00171039 FZRANO PNO $